Uhrichsville, OH (44683)

6:41 PM EST on February 11, 2016 (GMT -0500)
Clever | | Change Station
CLOSE
Current Station
Airport
Location: New Philadelphia,
Elevation: 892 ft
Nearby Weather Stations

Elev 892 ft 40.47 °N, 81.42 °W | Updated 48 minutes ago

Overcast
Overcast
17 °F
Feels Like 5 °F
N
10
Wind Variable Wind from NW

Today
High -- | Low -- °F
--% Chance of Precip.
Yesterday
High -- | Low -- °F
Precip. -- in
Pressure 30.32 in
Visibility 10.0 miles
Clouds Few 5000 ft
Windchill 5 °F
Dew Point 0 °F
Humidity 47%
Rainfall 0.00 in
Snow Depth Not available.
7:24 AM 5:55 PM
Waxing Crescent, 15% visible
METAR KPHD 112253Z AUTO 32009KT 10SM FEW050 M08/M18 A3027 RMK AO2 SLP268 T10831178
Pressure 30.32 in
Visibility 10.0 miles
Clouds Few 5000 ft
Windchill 5 °F
Dew Point 0 °F
Humidity 47%
Rainfall 0.00 in
Snow Depth Not available.
7:24 AM 5:55 PM
Waxing Crescent, 15% visible
METAR KPHD 112253Z AUTO 32009KT 10SM FEW050 M08/M18 A3027 RMK AO2 SLP268 T10831178

10-Day Weather Forecast

Almanac

Astronomy

Feb. 11, 2016 Rise Set
Actual Time
Civil Twilight
Nautical Twilight
Astronomical Twilight
Moon
Length of Visible Light
Length of Day
Tomorrow will be .
, % of the Moon is Illuminated

Today's Extremes

State Highs State Lows

Community

WunderPhotos

Upload Photos

1,892,180 photos uploaded!

WunderBlog® & News

Nearby

Air Quality

  Air Quality AQ Index Pollutant
Not available.

Snow Depth

Station Depth Elevation

Earthquake Activity

City Distance Mag. Time & Date
Minimum magnitude displayed is 2.5.

Coastal Water Temperatures

Place Temperature

Stations

Nearby Weather Stations

Station Location Temp. Windchill Dew Point Humidity Wind Precip. Elev Updated Type
                   

Watches & Warnings

There are currently no watches in effect.